createdAt,value
2023-03-19T00:01:21.604Z,101935.91
2023-03-19T00:06:52.069Z,101905.56
2023-03-19T00:12:23.334Z,101936.22
2023-03-19T00:18:05.490Z,101961.88
2023-03-19T00:23:44.924Z,101924.84
2023-03-19T00:29:21.540Z,101916.56
2023-03-19T00:40:28.224Z,101906.16
2023-03-19T00:45:31.653Z,101889.06
2023-03-19T00:50:32.513Z,101998.63
2023-03-19T00:55:33.921Z,101959.94
2023-03-19T01:10:43.944Z,101901.00
2023-03-19T01:15:49.168Z,101964.00
2023-03-19T01:21:10.287Z,101906.41
2023-03-19T01:26:26.990Z,101908.63
2023-03-19T01:31:33.943Z,101914.84
2023-03-19T01:37:04.386Z,101890.16
2023-03-19T01:42:10.161Z,101983.09
2023-03-19T01:47:35.739Z,101983.19
2023-03-19T01:52:46.050Z,101919.44
2023-03-19T01:58:08.447Z,101894.09
2023-03-19T02:03:46.554Z,101944.00
2023-03-19T02:08:55.927Z,101879.47
2023-03-19T02:14:04.386Z,101865.09
2023-03-19T02:19:08.587Z,101866.09
2023-03-19T02:24:40.058Z,101947.19
2023-03-19T02:29:51.762Z,101914.47
2023-03-19T02:35:14.392Z,101979.38
2023-03-19T02:40:23.382Z,101976.13
2023-03-19T02:45:31.107Z,101949.56
2023-03-19T02:50:29.786Z,101891.41
2023-03-19T02:55:41.590Z,101877.25
2023-03-19T03:00:40.717Z,101911.44
2023-03-19T03:05:40.129Z,101928.31
2023-03-19T03:10:43.450Z,101968.34
2023-03-19T03:15:50.253Z,101951.56
2023-03-19T03:20:56.409Z,101994.69
2023-03-19T03:26:06.297Z,101937.63
2023-03-19T03:31:08.527Z,101906.56
2023-03-19T03:36:12.916Z,101941.13
2023-03-19T03:41:14.598Z,101934.31
2023-03-19T03:46:27.303Z,101940.25
2023-03-19T03:51:30.856Z,101928.88
2023-03-19T03:56:33.874Z,101922.09
2023-03-19T04:01:39.928Z,101967.69
2023-03-19T04:06:42.224Z,101982.34
2023-03-19T04:12:10.708Z,101977.09
2023-03-19T04:17:14.061Z,101990.00
2023-03-19T04:22:19.795Z,101946.09
2023-03-19T04:27:24.123Z,102024.63
2023-03-19T04:32:23.852Z,101998.75
2023-03-19T04:37:36.492Z,101933.81
2023-03-19T04:42:41.899Z,101937.81
2023-03-19T04:48:16.643Z,101929.66
2023-03-19T04:53:29.167Z,101954.31
2023-03-19T04:58:58.653Z,102033.03
2023-03-19T05:04:27.859Z,102021.81
2023-03-19T05:10:06.812Z,102000.41
2023-03-19T05:15:07.347Z,102029.09
2023-03-19T05:21:25.776Z,101913.75
2023-03-19T05:27:20.213Z,101990.34
2023-03-19T05:33:17.012Z,101997.13
2023-03-19T05:44:18.665Z,102030.41
2023-03-19T05:50:26.471Z,102028.25
2023-03-19T05:56:10.536Z,102021.09
2023-03-19T06:07:09.894Z,101990.44
2023-03-19T06:12:54.045Z,101992.81
2023-03-19T06:19:01.709Z,101980.38
2023-03-19T06:25:12.471Z,101956.09
2023-03-19T06:30:59.713Z,101937.25
2023-03-19T06:36:54.534Z,101923.81
2023-03-19T06:43:27.957Z,102037.69
2023-03-19T06:54:32.568Z,102019.78
2023-03-19T07:00:13.650Z,102006.88
2023-03-19T07:31:53.721Z,101943.53
2023-03-19T07:38:45.016Z,102017.38
2023-03-19T07:44:50.683Z,102023.00
2023-03-19T07:57:46.781Z,102013.34
2023-03-19T08:23:36.000Z,101926.22
2023-03-19T08:29:01.585Z,101936.53
2023-03-19T09:13:05.900Z,101845.19
2023-03-19T09:42:17.154Z,101846.38
2023-03-19T09:49:53.001Z,101903.19
2023-03-19T10:15:27.286Z,101789.06
2023-03-19T10:23:16.533Z,101794.34
2023-03-19T11:05:51.704Z,101790.69
2023-03-19T11:12:00.551Z,101708.19
2023-03-19T11:18:07.397Z,101738.94
2023-03-19T11:24:03.329Z,101814.97
2023-03-19T11:29:35.391Z,101728.31
2023-03-19T11:35:11.163Z,101771.97
2023-03-19T11:41:16.429Z,101673.88
2023-03-19T11:53:01.647Z,101747.69
2023-03-19T11:59:34.522Z,101764.84
2023-03-19T12:05:15.351Z,101674.59
2023-03-19T12:30:53.120Z,101619.53
2023-03-19T12:38:22.019Z,101704.81
2023-03-19T12:43:59.147Z,101702.50
2023-03-19T13:12:26.268Z,101576.59
2023-03-19T13:18:15.459Z,101578.06
2023-03-19T13:24:18.597Z,101670.44
2023-03-19T13:50:22.713Z,101632.66
2023-03-19T13:56:12.740Z,101531.56
2023-03-19T14:02:04.782Z,101501.41
2023-03-19T19:54:47.485Z,101634.31
2023-03-19T19:59:47.851Z,101612.19
2023-03-19T20:04:45.060Z,101558.16
2023-03-19T20:09:42.300Z,101571.13
2023-03-19T20:14:41.258Z,101626.56
2023-03-19T20:19:38.216Z,101642.22
2023-03-19T20:24:35.198Z,101632.03
2023-03-19T20:29:35.056Z,101616.94
2023-03-19T20:34:39.270Z,101631.16
2023-03-19T20:39:36.616Z,101579.34
2023-03-19T20:44:33.453Z,101589.25
2023-03-19T20:49:30.509Z,101610.44
2023-03-19T20:54:28.156Z,101639.03
2023-03-19T20:59:59.541Z,101614.59
2023-03-19T21:04:57.140Z,101649.66
2023-03-19T21:09:55.426Z,101631.22
2023-03-19T21:14:52.386Z,101633.41
2023-03-19T21:19:49.665Z,101589.75
2023-03-19T21:24:47.090Z,101641.28
2023-03-19T21:29:47.693Z,101589.25
2023-03-19T21:34:45.242Z,101579.22
2023-03-19T21:39:42.649Z,101623.91
2023-03-19T21:44:40.199Z,101607.97
2023-03-19T21:49:37.746Z,101636.75
2023-03-19T21:54:34.701Z,101629.22
2023-03-19T21:59:33.143Z,101607.97
2023-03-19T22:04:31.625Z,101627.72
2023-03-19T22:09:29.213Z,101624.69
2023-03-19T22:14:27.910Z,101640.47
2023-03-19T22:19:25.770Z,101586.56
2023-03-19T22:24:22.819Z,101578.53
2023-03-19T22:29:23.978Z,101627.97
2023-03-19T22:34:24.130Z,101575.03
2023-03-19T22:39:21.233Z,101544.59
2023-03-19T22:44:25.939Z,101596.47
2023-03-19T22:49:24.272Z,101551.72
2023-03-19T22:54:21.175Z,101589.41
2023-03-19T22:59:19.591Z,101603.75
2023-03-19T23:04:25.619Z,101603.69
2023-03-19T23:09:28.630Z,101537.50
2023-03-19T23:14:30.531Z,101558.97
2023-03-19T23:19:31.075Z,101593.97
2023-03-19T23:24:30.017Z,101492.75
2023-03-19T23:29:29.939Z,101521.41
2023-03-19T23:34:27.873Z,101568.50
2023-03-19T23:39:25.600Z,101590.97
2023-03-19T23:44:22.968Z,101585.75
2023-03-19T23:49:26.846Z,101590.16
2023-03-19T23:54:29.884Z,101525.06
2023-03-19T23:59:30.287Z,101565.41
